createdAt,value
2023-05-10T00:01:41.382Z,1.98
2023-05-10T00:04:09.452Z,4.85
2023-05-10T00:06:37.592Z,4.38
2023-05-10T00:09:07.184Z,6.78
2023-05-10T00:11:35.394Z,4.40
2023-05-10T00:14:03.508Z,3.30
2023-05-10T00:16:31.728Z,10.13
2023-05-10T00:18:59.859Z,2.65
2023-05-10T00:21:29.357Z,5.18
2023-05-10T00:23:57.440Z,4.15
2023-05-10T00:26:26.935Z,5.53
2023-05-10T00:28:57.867Z,3.80
2023-05-10T00:31:26.045Z,5.07
2023-05-10T00:33:54.116Z,3.58
2023-05-10T00:36:22.215Z,6.03
2023-05-10T00:38:50.382Z,2.80
2023-05-10T00:41:19.597Z,3.03
2023-05-10T00:43:50.452Z,7.20
2023-05-10T00:46:18.817Z,4.25
2023-05-10T00:48:47.427Z,2.33
2023-05-10T00:51:15.944Z,8.73
2023-05-10T00:53:44.816Z,4.35
2023-05-10T00:56:13.332Z,5.15
2023-05-10T00:58:41.975Z,6.60
2023-05-10T01:01:12.800Z,4.65
2023-05-10T01:03:42.617Z,9.63
2023-05-10T01:06:12.270Z,3.90
2023-05-10T01:08:41.047Z,9.88
2023-05-10T01:11:09.235Z,9.73
2023-05-10T01:13:40.491Z,3.42
2023-05-10T01:16:09.134Z,6.65
2023-05-10T01:18:41.176Z,4.78
2023-05-10T01:21:28.450Z,4.10
2023-05-10T01:24:29.871Z,5.30
2023-05-10T01:27:25.218Z,6.97
2023-05-10T01:30:34.400Z,3.17
2023-05-10T01:33:12.718Z,5.93
2023-05-10T01:35:48.624Z,5.85
2023-05-10T01:38:24.606Z,4.45
2023-05-10T01:41:03.537Z,4.40
2023-05-10T01:43:39.225Z,13.50
2023-05-10T01:46:12.022Z,4.28
2023-05-10T01:48:49.200Z,3.13
2023-05-10T01:51:23.042Z,7.57
2023-05-10T01:53:53.682Z,5.90
2023-05-10T01:56:26.073Z,3.13
2023-05-10T01:58:55.036Z,4.25
2023-05-10T02:01:24.672Z,2.85
2023-05-10T02:03:54.837Z,4.25
2023-05-10T02:06:26.225Z,5.20
2023-05-10T02:08:55.813Z,8.10
2023-05-10T02:11:25.107Z,4.07
2023-05-10T02:13:55.507Z,8.20
2023-05-10T02:16:31.799Z,5.57
2023-05-10T02:19:04.370Z,7.30
2023-05-10T02:21:33.740Z,5.05
2023-05-10T02:24:05.519Z,4.35
2023-05-10T02:26:36.057Z,6.30
2023-05-10T02:29:05.751Z,6.45
2023-05-10T02:31:34.967Z,3.67
2023-05-10T02:34:06.037Z,5.00
2023-05-10T02:36:34.937Z,3.17
2023-05-10T02:39:04.315Z,4.85
2023-05-10T02:41:34.574Z,5.18
2023-05-10T02:44:04.655Z,5.93
2023-05-10T02:46:33.177Z,5.00
2023-05-10T02:49:01.650Z,3.90
2023-05-10T02:51:34.824Z,10.68
2023-05-10T02:54:06.393Z,4.90
2023-05-10T02:56:37.821Z,8.02
2023-05-10T02:59:05.992Z,8.10
2023-05-10T03:01:34.520Z,4.78
2023-05-10T03:04:02.612Z,7.47
2023-05-10T03:06:32.372Z,4.22
2023-05-10T03:09:00.945Z,9.23
2023-05-10T03:11:41.778Z,6.88
2023-05-10T03:14:18.526Z,3.58
2023-05-10T03:16:48.944Z,8.77
2023-05-10T03:19:24.905Z,4.70
2023-05-10T03:21:56.274Z,5.00
2023-05-10T03:24:29.352Z,6.60
2023-05-10T03:27:03.731Z,4.85
2023-05-10T03:29:33.370Z,4.20
2023-05-10T03:32:01.889Z,8.48
2023-05-10T03:34:32.652Z,8.30
2023-05-10T03:37:02.493Z,5.95
2023-05-10T03:39:33.244Z,4.85
2023-05-10T03:42:02.603Z,4.72
2023-05-10T03:44:32.537Z,5.30
2023-05-10T03:47:01.062Z,5.38
2023-05-10T03:49:29.320Z,7.22
2023-05-10T03:51:57.449Z,6.53
2023-05-10T03:54:27.148Z,11.77
2023-05-10T03:56:55.302Z,6.85
2023-05-10T03:59:24.000Z,5.03
2023-05-10T04:01:53.377Z,3.35
2023-05-10T04:04:22.410Z,4.47
2023-05-10T04:06:51.596Z,6.43
2023-05-10T04:09:19.746Z,5.97
2023-05-10T04:11:49.275Z,4.72
2023-05-10T04:14:17.588Z,4.20
2023-05-10T04:16:45.960Z,4.45
2023-05-10T04:19:14.172Z,9.75
2023-05-10T04:21:42.348Z,4.50
2023-05-10T04:24:10.517Z,4.40
2023-05-10T04:26:38.591Z,6.82
2023-05-10T04:29:08.300Z,5.93
2023-05-10T04:31:37.235Z,6.88
2023-05-10T04:34:05.372Z,13.30
2023-05-10T04:36:36.306Z,4.63
2023-05-10T04:39:04.766Z,5.15
2023-05-10T04:41:33.163Z,20.25
2023-05-10T04:44:01.234Z,8.88
2023-05-10T04:46:30.769Z,8.57
2023-05-10T04:48:59.197Z,5.93
2023-05-10T04:51:27.277Z,4.60
2023-05-10T04:54:05.072Z,6.97
2023-05-10T04:56:34.762Z,10.77
2023-05-10T04:59:03.706Z,8.98
2023-05-10T05:01:33.209Z,9.05
2023-05-10T05:04:01.990Z,7.13
2023-05-10T05:06:30.128Z,6.85
2023-05-10T05:08:58.378Z,6.70
2023-05-10T05:11:27.000Z,5.55
2023-05-10T05:13:55.601Z,8.52
2023-05-10T05:16:23.714Z,6.35
2023-05-10T05:18:53.690Z,8.77
2023-05-10T05:21:22.769Z,8.05
2023-05-10T05:23:51.241Z,10.38
2023-05-10T05:26:19.649Z,8.63
2023-05-10T05:28:49.942Z,9.75
2023-05-10T05:31:18.741Z,10.73
2023-05-10T05:33:47.166Z,7.80
2023-05-10T05:36:16.937Z,7.07
2023-05-10T05:38:45.035Z,7.28
2023-05-10T05:41:13.504Z,7.82
2023-05-10T05:43:41.787Z,7.22
2023-05-10T05:46:09.928Z,6.63
2023-05-10T05:48:38.314Z,6.72
2023-05-10T05:51:07.352Z,7.75
2023-05-10T05:53:37.004Z,8.77
2023-05-10T05:56:06.107Z,9.88
2023-05-10T05:58:34.467Z,8.43
2023-05-10T06:01:02.557Z,7.85
2023-05-10T06:03:31.175Z,6.75
2023-05-10T06:05:59.347Z,10.73
2023-05-10T06:08:27.425Z,12.77
2023-05-10T06:10:57.273Z,10.27
2023-05-10T06:13:25.357Z,13.43
2023-05-10T06:15:53.466Z,9.57
2023-05-10T06:18:21.954Z,12.73
2023-05-10T06:20:51.245Z,14.30
2023-05-10T06:23:19.313Z,9.90
2023-05-10T06:25:47.711Z,12.50
2023-05-10T06:28:17.134Z,10.40
2023-05-10T06:30:45.441Z,10.73
2023-05-10T06:33:14.091Z,13.70
2023-05-10T06:35:42.189Z,13.35
2023-05-10T06:38:10.415Z,12.65
2023-05-10T06:40:38.771Z,17.05
2023-05-10T06:43:08.868Z,12.13
2023-05-10T06:45:38.491Z,18.35
2023-05-10T06:48:07.088Z,16.13
2023-05-10T06:50:35.350Z,21.83
2023-05-10T06:53:03.793Z,19.75
2023-05-10T06:55:32.145Z,14.10
2023-05-10T06:58:00.420Z,13.93
2023-05-10T07:00:28.519Z,19.35
2023-05-10T07:02:58.161Z,20.45
2023-05-10T07:05:28.784Z,22.80
2023-05-10T07:07:57.011Z,18.10
2023-05-10T07:10:27.947Z,19.88
2023-05-10T07:12:56.277Z,20.77
2023-05-10T07:15:24.491Z,16.60
2023-05-10T07:17:53.150Z,20.85
2023-05-10T07:20:22.893Z,13.95
2023-05-10T07:22:50.957Z,17.77
2023-05-10T07:25:19.250Z,16.25
2023-05-10T07:27:49.437Z,20.05
2023-05-10T07:30:17.527Z,20.20
2023-05-10T07:32:46.178Z,17.95
2023-05-10T07:35:14.390Z,24.67
2023-05-10T07:37:43.829Z,18.77
2023-05-10T07:40:12.588Z,17.77
2023-05-10T07:42:40.604Z,17.55
2023-05-10T07:45:10.528Z,19.02
2023-05-10T07:47:39.036Z,17.52
2023-05-10T07:50:08.683Z,16.67
2023-05-10T07:52:36.728Z,19.27
2023-05-10T07:55:08.395Z,23.75
2023-05-10T07:57:36.777Z,20.10
2023-05-10T08:00:05.506Z,19.50
2023-05-10T08:02:41.634Z,17.60
2023-05-10T08:05:10.444Z,21.70
2023-05-10T08:07:38.950Z,19.73
2023-05-10T08:10:10.439Z,22.23
2023-05-10T08:12:38.620Z,15.60
2023-05-10T08:15:08.069Z,16.40
2023-05-10T08:17:36.357Z,13.60
2023-05-10T08:20:04.664Z,16.98
2023-05-10T08:22:32.727Z,13.35
2023-05-10T08:25:00.946Z,14.50
2023-05-10T08:27:30.452Z,17.15
2023-05-10T08:29:58.485Z,15.13
2023-05-10T08:32:26.805Z,15.05
2023-05-10T08:34:54.916Z,10.75
2023-05-10T08:37:22.996Z,9.65
2023-05-10T08:39:51.274Z,9.55
2023-05-10T08:42:24.632Z,8.98
2023-05-10T08:44:55.812Z,7.03
2023-05-10T08:47:24.331Z,8.75
2023-05-10T08:49:53.503Z,8.07
2023-05-10T08:52:22.830Z,8.05
2023-05-10T08:54:59.474Z,7.00
2023-05-10T08:57:27.997Z,7.78
2023-05-10T08:59:56.171Z,8.77
2023-05-10T09:02:26.115Z,8.40
2023-05-10T09:04:54.668Z,6.82
2023-05-10T09:07:23.065Z,8.25
2023-05-10T09:09:51.532Z,6.70
2023-05-10T09:12:21.170Z,6.38
2023-05-10T09:14:49.959Z,4.40
2023-05-10T09:17:18.543Z,3.50
2023-05-10T09:19:47.746Z,6.20
2023-05-10T09:22:15.953Z,3.22
2023-05-10T09:24:46.355Z,2.30
2023-05-10T09:27:14.607Z,2.40
2023-05-10T09:29:45.088Z,2.45
2023-05-10T09:32:13.908Z,2.67
2023-05-10T09:34:43.382Z,1.67
2023-05-10T09:37:11.595Z,3.03
2023-05-10T09:39:40.303Z,2.95
2023-05-10T09:42:10.043Z,2.80
2023-05-10T09:44:38.998Z,3.50
2023-05-10T09:47:08.541Z,3.65
2023-05-10T09:49:36.989Z,5.28
2023-05-10T09:52:06.281Z,5.38
2023-05-10T09:54:34.976Z,4.07
2023-05-10T09:57:03.983Z,3.60
2023-05-10T09:59:35.817Z,3.65
2023-05-10T10:02:04.777Z,4.43
2023-05-10T10:04:34.544Z,3.80
2023-05-10T10:07:04.866Z,3.95
2023-05-10T10:09:33.465Z,4.15
2023-05-10T10:12:02.015Z,9.63
2023-05-10T10:14:31.319Z,2.97
2023-05-10T10:17:07.424Z,6.75
2023-05-10T10:19:38.545Z,18.02
2023-05-10T10:22:07.504Z,3.20
2023-05-10T10:24:36.059Z,5.25
2023-05-10T10:27:13.731Z,2.45
2023-05-10T10:29:49.603Z,4.75
2023-05-10T10:32:28.021Z,1.63
2023-05-10T10:34:58.422Z,2.58
2023-05-10T10:37:42.918Z,8.45
2023-05-10T10:40:31.328Z,2.15
2023-05-10T10:43:20.971Z,2.05
2023-05-10T10:46:10.843Z,3.88
2023-05-10T10:48:38.921Z,2.33
2023-05-10T10:51:10.054Z,1.40
2023-05-10T10:53:41.461Z,0.85
2023-05-10T10:56:10.946Z,3.17
2023-05-10T10:58:40.297Z,3.92
2023-05-10T11:01:14.226Z,3.50
2023-05-10T11:03:42.868Z,1.90
2023-05-10T11:06:12.302Z,3.42
2023-05-10T11:08:48.971Z,7.55
2023-05-10T11:11:17.297Z,2.00
2023-05-10T11:13:50.858Z,1.30
2023-05-10T11:16:21.700Z,1.17
2023-05-10T11:19:00.531Z,1.30
2023-05-10T11:21:31.128Z,5.25
2023-05-10T11:24:00.257Z,1.25
2023-05-10T11:26:32.610Z,1.17
2023-05-10T11:29:02.030Z,1.05
2023-05-10T11:31:30.938Z,2.33
2023-05-10T11:34:00.552Z,4.07
2023-05-10T11:36:32.045Z,1.08
2023-05-10T11:39:00.057Z,1.00
2023-05-10T11:41:31.530Z,1.38
2023-05-10T11:44:00.297Z,0.60
2023-05-10T11:46:29.659Z,1.17
2023-05-10T11:49:02.947Z,1.38
2023-05-10T11:51:36.643Z,1.08
2023-05-10T11:54:09.299Z,1.05
2023-05-10T11:56:38.032Z,1.67
2023-05-10T11:59:06.868Z,0.73
2023-05-10T12:01:35.630Z,0.77
2023-05-10T12:04:04.240Z,0.98
2023-05-10T12:06:36.641Z,0.98
2023-05-10T12:09:08.774Z,1.70
2023-05-10T12:11:42.498Z,0.70
2023-05-10T12:14:12.261Z,1.27
2023-05-10T12:16:40.961Z,1.08
2023-05-10T12:19:09.141Z,1.85
2023-05-10T12:21:39.745Z,3.92
2023-05-10T12:24:08.245Z,1.40
2023-05-10T12:26:37.781Z,1.70
2023-05-10T12:29:16.814Z,0.55
2023-05-10T12:31:55.364Z,0.57
2023-05-10T12:34:28.058Z,0.77
2023-05-10T12:36:57.794Z,1.83
2023-05-10T12:39:26.350Z,1.35
2023-05-10T12:41:54.954Z,1.77
2023-05-10T12:44:23.112Z,0.80
2023-05-10T12:46:51.395Z,0.38
2023-05-10T12:49:20.813Z,0.25
2023-05-10T12:51:48.839Z,0.20
2023-05-10T12:54:18.487Z,0.40
2023-05-10T12:56:46.769Z,0.40
2023-05-10T12:59:14.819Z,2.05
2023-05-10T13:01:43.317Z,0.38
2023-05-10T13:04:11.838Z,1.13
2023-05-10T13:06:39.891Z,1.77
2023-05-10T13:09:08.143Z,1.58
2023-05-10T13:11:37.880Z,0.57
2023-05-10T13:14:05.960Z,0.93
2023-05-10T13:16:34.408Z,0.70
2023-05-10T13:19:02.855Z,1.50
2023-05-10T13:21:31.389Z,0.68
2023-05-10T13:23:59.751Z,1.42
2023-05-10T13:26:28.082Z,1.80
2023-05-10T13:28:57.565Z,1.98
2023-05-10T13:31:25.996Z,2.92
2023-05-10T13:33:54.241Z,2.60
2023-05-10T13:36:22.537Z,2.22
2023-05-10T13:38:50.732Z,3.60
2023-05-10T13:41:19.721Z,2.25
2023-05-10T13:43:49.866Z,3.03
2023-05-10T13:46:20.558Z,1.55
2023-05-10T13:48:48.638Z,2.80
2023-05-10T13:51:16.689Z,2.47
2023-05-10T13:53:44.990Z,2.60
2023-05-10T13:56:13.253Z,2.58
2023-05-10T13:58:41.317Z,1.10
2023-05-10T14:01:09.459Z,2.38
2023-05-10T14:03:39.106Z,3.38
2023-05-10T14:06:08.391Z,2.58
2023-05-10T14:08:37.510Z,1.70
2023-05-10T14:11:05.620Z,0.80
2023-05-10T14:13:33.972Z,0.63
2023-05-10T14:16:02.856Z,1.30
2023-05-10T14:18:31.288Z,3.80
2023-05-10T14:21:00.858Z,3.25
2023-05-10T14:23:29.942Z,2.22
2023-05-10T14:25:58.312Z,1.95
2023-05-10T14:28:26.700Z,1.90
2023-05-10T14:30:55.062Z,1.63
2023-05-10T14:33:23.439Z,2.13
2023-05-10T14:35:51.530Z,1.13
2023-05-10T14:38:21.148Z,1.30
2023-05-10T14:40:49.154Z,1.13
2023-05-10T14:43:17.895Z,2.15
2023-05-10T14:45:46.567Z,2.53
2023-05-10T14:48:17.040Z,2.22
2023-05-10T14:50:45.418Z,1.35
2023-05-10T14:53:13.706Z,1.00
2023-05-10T14:55:43.263Z,2.05
2023-05-10T14:58:11.783Z,2.10
2023-05-10T15:00:39.866Z,1.70
2023-05-10T15:03:08.550Z,2.58
2023-05-10T15:05:38.248Z,2.95
2023-05-10T15:08:06.947Z,3.90
2023-05-10T15:10:35.184Z,3.33
2023-05-10T15:13:05.762Z,2.65
2023-05-10T15:15:34.193Z,5.18
2023-05-10T15:18:02.446Z,3.55
2023-05-10T15:20:30.804Z,2.55
2023-05-10T15:22:59.133Z,2.05
2023-05-10T15:25:27.190Z,1.55
2023-05-10T15:27:55.234Z,1.17
2023-05-10T15:30:25.048Z,1.80
2023-05-10T15:32:53.197Z,1.30
2023-05-10T15:35:21.578Z,1.58
2023-05-10T15:37:50.468Z,1.45
2023-05-10T15:40:18.858Z,1.40
2023-05-10T15:42:46.894Z,1.42
2023-05-10T15:45:16.627Z,1.50
2023-05-10T15:47:46.404Z,2.45
2023-05-10T15:50:14.528Z,1.65
2023-05-10T15:52:42.863Z,3.35
2023-05-10T15:55:13.242Z,2.00
2023-05-10T15:57:41.589Z,4.75
2023-05-10T16:00:11.481Z,2.30
2023-05-10T16:02:42.271Z,3.42
2023-05-10T16:05:12.276Z,1.08
2023-05-10T16:07:41.651Z,0.82
2023-05-10T16:10:11.477Z,4.63
2023-05-10T16:12:39.795Z,2.33
2023-05-10T16:15:09.903Z,1.38
2023-05-10T16:17:38.048Z,1.40
2023-05-10T16:20:07.430Z,2.47
2023-05-10T16:22:36.822Z,1.75
2023-05-10T16:25:05.400Z,0.90
2023-05-10T16:27:33.620Z,0.85
2023-05-10T16:30:01.817Z,1.27
2023-05-10T16:32:30.116Z,3.03
2023-05-10T16:34:58.216Z,2.65
2023-05-10T16:37:26.532Z,2.83
2023-05-10T16:39:55.916Z,1.55
2023-05-10T16:42:25.197Z,1.30
2023-05-10T16:44:53.373Z,1.98
2023-05-10T16:47:21.388Z,0.77
2023-05-10T16:49:49.612Z,0.98
2023-05-10T16:52:17.640Z,0.63
2023-05-10T16:54:45.895Z,0.70
2023-05-10T16:57:16.855Z,1.65
2023-05-10T16:59:44.978Z,2.88
2023-05-10T17:02:13.204Z,3.03
2023-05-10T17:04:41.549Z,4.10
2023-05-10T17:07:09.717Z,1.83
2023-05-10T17:09:37.962Z,2.85
2023-05-10T17:12:06.355Z,2.00
2023-05-10T17:14:36.660Z,2.80
2023-05-10T17:17:04.821Z,2.15
2023-05-10T17:19:32.830Z,3.78
2023-05-10T17:22:00.890Z,3.85
2023-05-10T17:24:29.775Z,2.47
2023-05-10T17:26:58.460Z,1.65
2023-05-10T17:29:26.465Z,2.10
2023-05-10T17:31:55.850Z,1.40
2023-05-10T17:34:24.463Z,1.73
2023-05-10T17:36:52.461Z,2.25
2023-05-10T17:39:20.548Z,1.40
2023-05-10T17:41:48.943Z,1.70
2023-05-10T17:44:16.957Z,3.05
2023-05-10T17:46:44.937Z,1.60
2023-05-10T17:49:15.052Z,1.80
2023-05-10T17:51:44.059Z,1.73
2023-05-10T17:54:12.213Z,3.03
2023-05-10T17:56:40.449Z,2.47
2023-05-10T17:59:08.594Z,11.25
2023-05-10T18:01:36.668Z,5.63
2023-05-10T18:04:06.197Z,2.80
2023-05-10T18:06:38.404Z,2.50
2023-05-10T18:09:07.307Z,2.20
2023-05-10T18:11:36.479Z,2.13
2023-05-10T18:14:04.625Z,2.63
2023-05-10T18:16:32.949Z,2.42
2023-05-10T18:19:01.157Z,3.70
2023-05-10T18:21:29.232Z,8.60
2023-05-10T18:23:58.577Z,16.00
2023-05-10T18:26:27.722Z,14.80
2023-05-10T18:28:55.769Z,16.45
2023-05-10T18:31:24.087Z,8.27
2023-05-10T18:33:52.289Z,5.10
2023-05-10T18:36:20.418Z,3.90
2023-05-10T18:38:48.733Z,2.47
2023-05-10T18:41:18.692Z,2.55
2023-05-10T18:43:46.780Z,3.20
2023-05-10T18:46:15.197Z,2.20
2023-05-10T18:48:43.866Z,1.83
2023-05-10T18:51:12.478Z,2.28
2023-05-10T18:53:40.844Z,3.40
2023-05-10T18:56:09.599Z,4.63
2023-05-10T18:58:39.039Z,3.38
2023-05-10T19:01:07.998Z,2.38
2023-05-10T19:03:36.713Z,3.95
2023-05-10T19:06:05.035Z,3.45
2023-05-10T19:08:51.802Z,3.67
2023-05-10T19:11:21.884Z,3.20
2023-05-10T19:13:51.438Z,2.47
2023-05-10T19:16:23.408Z,2.08
2023-05-10T19:18:52.362Z,2.53
2023-05-10T19:21:20.550Z,1.88
2023-05-10T19:23:49.279Z,3.53
2023-05-10T19:26:17.845Z,1.92
2023-05-10T19:28:46.213Z,2.45
2023-05-10T19:31:15.752Z,1.85
2023-05-10T19:33:44.077Z,3.20
2023-05-10T19:36:12.100Z,1.65
2023-05-10T19:38:40.170Z,1.83
2023-05-10T19:41:08.332Z,1.52
2023-05-10T19:43:38.320Z,3.45
2023-05-10T19:46:06.994Z,2.72
2023-05-10T19:48:36.471Z,3.25
2023-05-10T19:51:08.520Z,2.67
2023-05-10T19:53:39.959Z,4.63
2023-05-10T19:56:08.964Z,2.38
2023-05-10T19:58:37.200Z,2.60
2023-05-10T20:01:07.717Z,1.75
2023-05-10T20:03:37.787Z,1.52
2023-05-10T20:06:06.145Z,1.48
2023-05-10T20:08:34.503Z,1.80
2023-05-10T20:11:03.827Z,1.73
2023-05-10T20:13:32.213Z,1.63
2023-05-10T20:16:02.217Z,1.60
2023-05-10T20:18:30.599Z,1.60
2023-05-10T20:21:01.672Z,2.75
2023-05-10T20:23:29.879Z,2.30
2023-05-10T20:25:58.231Z,3.17
2023-05-10T20:28:27.126Z,2.10
2023-05-10T20:30:56.850Z,1.77
2023-05-10T20:33:25.084Z,2.22
2023-05-10T20:35:53.433Z,1.67
2023-05-10T20:38:22.952Z,2.45
2023-05-10T20:40:51.331Z,2.22
2023-05-10T20:43:21.293Z,2.90
2023-05-10T20:45:49.870Z,2.58
2023-05-10T20:48:19.606Z,2.10
2023-05-10T20:50:47.765Z,1.98
2023-05-10T20:53:16.086Z,2.60
2023-05-10T20:55:45.522Z,2.20
2023-05-10T20:58:13.873Z,3.17
2023-05-10T21:00:42.052Z,3.08
2023-05-10T21:03:10.213Z,3.00
2023-05-10T21:05:38.562Z,2.72
2023-05-10T21:08:06.816Z,2.50
2023-05-10T21:10:34.925Z,2.40
2023-05-10T21:13:04.364Z,2.83
2023-05-10T21:15:32.764Z,3.38
2023-05-10T21:18:00.999Z,2.40
2023-05-10T21:20:29.348Z,2.60
2023-05-10T21:22:57.674Z,2.85
2023-05-10T21:25:25.936Z,2.88
2023-05-10T21:27:54.328Z,2.40
2023-05-10T21:30:23.973Z,2.88
2023-05-10T21:32:52.319Z,2.95
2023-05-10T21:35:20.387Z,2.92
2023-05-10T21:37:48.705Z,2.55
2023-05-10T21:40:17.026Z,2.88
2023-05-10T21:42:49.385Z,2.95
2023-05-10T21:45:18.129Z,3.20
2023-05-10T21:47:47.786Z,3.38
2023-05-10T21:50:16.215Z,2.97
2023-05-10T21:52:44.491Z,2.92
2023-05-10T21:55:12.808Z,2.90
2023-05-10T21:57:41.335Z,3.67
2023-05-10T22:00:11.220Z,3.40
2023-05-10T22:02:41.081Z,4.45
2023-05-10T22:05:11.280Z,3.85
2023-05-10T22:07:39.677Z,5.07
2023-05-10T22:10:09.250Z,4.93
2023-05-10T22:12:37.324Z,5.22
2023-05-10T22:15:10.522Z,4.70
2023-05-10T22:17:39.993Z,8.32
2023-05-10T22:20:10.780Z,5.32
2023-05-10T22:22:38.993Z,4.53
2023-05-10T22:25:08.334Z,4.10
2023-05-10T22:27:36.825Z,4.50
2023-05-10T22:30:05.592Z,4.80
2023-05-10T22:32:34.526Z,5.55
2023-05-10T22:35:03.230Z,6.45
2023-05-10T22:37:32.686Z,6.38
2023-05-10T22:40:00.991Z,5.07
2023-05-10T22:42:29.131Z,5.25
2023-05-10T22:44:58.715Z,5.45
2023-05-10T22:47:26.843Z,5.80
2023-05-10T22:49:55.411Z,4.72
2023-05-10T22:52:23.516Z,4.75
2023-05-10T22:54:52.966Z,5.40
2023-05-10T22:57:21.316Z,6.32
2023-05-10T22:59:49.511Z,4.78
2023-05-10T23:02:18.247Z,5.85
2023-05-10T23:04:46.617Z,4.75
2023-05-10T23:07:15.091Z,4.85
2023-05-10T23:09:43.131Z,5.30
2023-05-10T23:12:12.807Z,5.35
2023-05-10T23:14:42.287Z,6.10
2023-05-10T23:17:10.415Z,5.43
2023-05-10T23:19:38.858Z,6.15
2023-05-10T23:22:06.938Z,5.90
2023-05-10T23:24:35.336Z,5.25
2023-05-10T23:27:03.759Z,5.55
2023-05-10T23:29:34.650Z,6.85
2023-05-10T23:32:03.022Z,6.07
2023-05-10T23:34:31.189Z,6.80
2023-05-10T23:36:59.525Z,7.07
2023-05-10T23:39:27.596Z,7.30
2023-05-10T23:41:56.360Z,9.43
2023-05-10T23:44:24.764Z,11.73
2023-05-10T23:46:54.339Z,18.77
2023-05-10T23:49:22.446Z,15.73
2023-05-10T23:51:50.599Z,11.18
2023-05-10T23:54:26.246Z,37.60
2023-05-10T23:56:54.367Z,36.15
2023-05-10T23:59:22.690Z,26.55
